sensor_id;sensor_type;location;lat;lon;timestamp;pressure;altitude;pressure_sealevel;temperature;humidity
62694;BME280;48759;52.544;13.418;2022-09-12T00:01:37;101110.38;;;14.14;100.00
62694;BME280;48759;52.544;13.418;2022-09-12T00:04:04;101111.72;;;14.74;100.00
62694;BME280;48759;52.544;13.418;2022-09-12T00:06:33;101113.31;;;14.19;100.00
62694;BME280;48759;52.544;13.418;2022-09-12T00:09:03;101106.97;;;14.57;100.00
62694;BME280;48759;52.544;13.418;2022-09-12T00:11:30;101102.53;;;14.42;100.00
62694;BME280;48759;52.544;13.418;2022-09-12T00:13:57;101100.06;;;13.90;100.00
62694;BME280;48759;52.544;13.418;2022-09-12T00:16:26;101102.50;;;14.11;100.00
62694;BME280;48759;52.544;13.418;2022-09-12T00:18:53;101098.81;;;13.86;100.00
62694;BME280;48759;52.544;13.418;2022-09-12T00:21:22;101105.94;;;14.44;100.00
62694;BME280;48759;52.544;13.418;2022-09-12T00:23:49;101096.16;;;14.80;100.00
62694;BME280;48759;52.544;13.418;2022-09-12T00:26:16;101093.03;;;14.70;100.00
62694;BME280;48759;52.544;13.418;2022-09-12T00:28:44;101101.00;;;15.09;100.00
62694;BME280;48759;52.544;13.418;2022-09-12T00:31:12;101096.81;;;15.00;100.00
62694;BME280;48759;52.544;13.418;2022-09-12T00:33:39;101091.53;;;13.14;100.00
62694;BME280;48759;52.544;13.418;2022-09-12T00:36:13;101092.78;;;12.52;100.00
62694;BME280;48759;52.544;13.418;2022-09-12T00:38:41;101092.34;;;12.42;100.00
62694;BME280;48759;52.544;13.418;2022-09-12T00:41:13;101089.78;;;12.53;100.00
62694;BME280;48759;52.544;13.418;2022-09-12T00:43:42;101095.91;;;12.22;100.00
62694;BME280;48759;52.544;13.418;2022-09-12T00:46:14;101097.44;;;12.45;100.00
62694;BME280;48759;52.544;13.418;2022-09-12T00:48:45;101094.69;;;12.51;100.00
62694;BME280;48759;52.544;13.418;2022-09-12T00:51:15;101092.28;;;12.15;100.00
62694;BME280;48759;52.544;13.418;2022-09-12T00:53:45;101086.81;;;12.42;100.00
62694;BME280;48759;52.544;13.418;2022-09-12T00:56:15;101090.69;;;12.80;100.00
62694;BME280;48759;52.544;13.418;2022-09-12T00:58:46;101092.34;;;12.42;100.00
62694;BME280;48759;52.544;13.418;2022-09-12T01:01:14;101091.28;;;12.56;100.00
62694;BME280;48759;52.544;13.418;2022-09-12T01:03:40;101089.44;;;12.89;100.00
62694;BME280;48759;52.544;13.418;2022-09-12T01:06:11;101088.91;;;12.26;100.00
62694;BME280;48759;52.544;13.418;2022-09-12T01:08:43;101087.41;;;12.24;100.00
62694;BME280;48759;52.544;13.418;2022-09-12T01:11:12;101088.25;;;12.11;100.00
62694;BME280;48759;52.544;13.418;2022-09-12T01:13:39;101092.72;;;12.25;100.00
62694;BME280;48759;52.544;13.418;2022-09-12T01:16:06;101091.66;;;12.13;100.00
62694;BME280;48759;52.544;13.418;2022-09-12T01:18:44;101083.81;;;12.23;100.00
62694;BME280;48759;52.544;13.418;2022-09-12T01:21:19;101089.50;;;12.09;100.00
62694;BME280;48759;52.544;13.418;2022-09-12T01:24:31;101088.25;;;12.18;100.00
62694;BME280;48759;52.544;13.418;2022-09-12T01:27:31;101087.59;;;12.09;100.00
62694;BME280;48759;52.544;13.418;2022-09-12T01:30:18;101085.50;;;12.24;100.00
62694;BME280;48759;52.544;13.418;2022-09-12T01:32:54;101090.94;;;11.98;100.00
62694;BME280;48759;52.544;13.418;2022-09-12T01:35:31;101094.72;;;11.84;100.00
62694;BME280;48759;52.544;13.418;2022-09-12T01:38:08;101087.94;;;11.86;100.00
62694;BME280;48759;52.544;13.418;2022-09-12T01:40:42;101085.41;;;11.98;100.00
62694;BME280;48759;52.544;13.418;2022-09-12T01:43:16;101081.84;;;12.04;100.00
62694;BME280;48759;52.544;13.418;2022-09-12T01:45:51;101090.72;;;11.93;100.00
62694;BME280;48759;52.544;13.418;2022-09-12T01:48:25;101076.16;;;12.12;100.00
62694;BME280;48759;52.544;13.418;2022-09-12T01:50:58;101077.75;;;11.87;100.00
62694;BME280;48759;52.544;13.418;2022-09-12T01:53:30;101082.06;;;12.03;100.00
62694;BME280;48759;52.544;13.418;2022-09-12T01:56:02;101069.31;;;11.95;100.00
62694;BME280;48759;52.544;13.418;2022-09-12T01:58:37;101071.41;;;11.93;100.00
62694;BME280;48759;52.544;13.418;2022-09-12T02:01:09;101069.31;;;11.95;100.00
62694;BME280;48759;52.544;13.418;2022-09-12T02:03:41;101077.31;;;11.42;100.00
62694;BME280;48759;52.544;13.418;2022-09-12T02:06:15;101078.38;;;11.41;100.00
62694;BME280;48759;52.544;13.418;2022-09-12T02:08:45;101077.72;;;11.74;100.00
62694;BME280;48759;52.544;13.418;2022-09-12T02:11:13;101082.09;;;12.22;100.00
62694;BME280;48759;52.544;13.418;2022-09-12T02:13:41;101075.56;;;12.50;100.00
62694;BME280;48759;52.544;13.418;2022-09-12T02:16:14;101082.94;;;12.16;100.00
62694;BME280;48759;52.544;13.418;2022-09-12T02:18:44;101080.69;;;11.79;100.00
62694;BME280;48759;52.544;13.418;2022-09-12T02:21:12;101077.25;;;11.70;100.00
62694;BME280;48759;52.544;13.418;2022-09-12T02:23:42;101081.41;;;11.60;100.00
62694;BME280;48759;52.544;13.418;2022-09-12T02:26:15;101082.91;;;11.56;100.00
62694;BME280;48759;52.544;13.418;2022-09-12T02:28:44;101076.81;;;11.67;100.00
62694;BME280;48759;52.544;13.418;2022-09-12T02:31:19;101076.22;;;11.71;100.00
62694;BME280;48759;52.544;13.418;2022-09-12T02:33:53;101073.44;;;11.65;100.00
62694;BME280;48759;52.544;13.418;2022-09-12T02:36:32;101071.22;;;11.54;100.00
62694;BME280;48759;52.544;13.418;2022-09-12T02:38:59;101080.13;;;11.56;100.00
62694;BME280;48759;52.544;13.418;2022-09-12T02:41:26;101080.09;;;11.49;100.00
62694;BME280;48759;52.544;13.418;2022-09-12T02:43:53;101078.38;;;11.41;100.00
62694;BME280;48759;52.544;13.418;2022-09-12T02:46:25;101075.19;;;11.44;100.00
62694;BME280;48759;52.544;13.418;2022-09-12T02:48:54;101073.66;;;11.35;100.00
62694;BME280;48759;52.544;13.418;2022-09-12T02:51:21;101078.38;;;11.41;100.00
62694;BME280;48759;52.544;13.418;2022-09-12T02:53:48;101075.03;;;11.52;100.00
62694;BME280;48759;52.544;13.418;2022-09-12T02:56:19;101073.16;;;11.60;100.00
62694;BME280;48759;52.544;13.418;2022-09-12T02:58:47;101072.63;;;11.77;100.00
62694;BME280;48759;52.544;13.418;2022-09-12T03:01:22;101076.81;;;11.67;100.00
62694;BME280;48759;52.544;13.418;2022-09-12T03:04:23;101087.44;;;11.70;100.00
62694;BME280;48759;52.544;13.418;2022-09-12T03:07:03;101078.88;;;11.58;100.00
62694;BME280;48759;52.544;13.418;2022-09-12T03:09:36;101086.16;;;11.66;100.00
62694;BME280;48759;52.544;13.418;2022-09-12T03:12:12;101073.88;;;11.75;100.00
62694;BME280;48759;52.544;13.418;2022-09-12T03:14:59;101081.25;;;11.61;100.00
62694;BME280;48759;52.544;13.418;2022-09-12T03:17:40;101078.94;;;11.65;100.00
62694;BME280;48759;52.544;13.418;2022-09-12T03:20:10;101078.88;;;11.58;100.00
62694;BME280;48759;52.544;13.418;2022-09-12T03:22:47;101079.34;;;11.62;100.00
62694;BME280;48759;52.544;13.418;2022-09-12T03:25:20;101074.59;;;11.49;100.00
62694;BME280;48759;52.544;13.418;2022-09-12T03:27:52;101081.69;;;11.65;100.00
62694;BME280;48759;52.544;13.418;2022-09-12T03:30:19;101078.97;;;11.37;100.00
62694;BME280;48759;52.544;13.418;2022-09-12T03:32:48;101085.00;;;11.54;100.00
62694;BME280;48759;52.544;13.418;2022-09-12T03:35:17;101082.34;;;11.32;100.00
62694;BME280;48759;52.544;13.418;2022-09-12T03:37:45;101078.56;;;11.40;100.00
62694;BME280;48759;52.544;13.418;2022-09-12T03:40:12;101078.78;;;11.38;100.00
62694;BME280;48759;52.544;13.418;2022-09-12T03:42:40;101085.34;;;11.44;100.00
62694;BME280;48759;52.544;13.418;2022-09-12T03:45:08;101079.88;;;11.85;100.00
62694;BME280;48759;52.544;13.418;2022-09-12T03:47:34;101087.34;;;11.57;100.00
62694;BME280;48759;52.544;13.418;2022-09-12T03:50:04;101084.47;;;11.71;100.00
62694;BME280;48759;52.544;13.418;2022-09-12T03:52:31;101074.19;;;11.59;100.00
62694;BME280;48759;52.544;13.418;2022-09-12T03:54:57;101077.63;;;11.61;100.00
62694;BME280;48759;52.544;13.418;2022-09-12T03:57:24;101085.66;;;11.56;100.00
62694;BME280;48759;52.544;13.418;2022-09-12T03:59:50;101090.31;;;11.55;100.00
62694;BME280;48759;52.544;13.418;2022-09-12T04:02:17;101093.34;;;11.67;100.00
62694;BME280;48759;52.544;13.418;2022-09-12T04:04:43;101094.91;;;11.41;100.00
62694;BME280;48759;52.544;13.418;2022-09-12T04:07:14;101090.19;;;11.70;100.00
62694;BME280;48759;52.544;13.418;2022-09-12T04:09:41;101106.22;;;12.68;100.00
62694;BME280;48759;52.544;13.418;2022-09-12T04:12:08;101094.91;;;12.50;100.00
62694;BME280;48759;52.544;13.418;2022-09-12T04:14:34;101089.81;;;11.73;100.00
62694;BME280;48759;52.544;13.418;2022-09-12T04:17:00;101083.84;;;11.69;100.00
62694;BME280;48759;52.544;13.418;2022-09-12T04:19:27;101089.84;;;11.51;100.00
62694;BME280;48759;52.544;13.418;2022-09-12T04:21:53;101084.50;;;11.43;100.00
62694;BME280;48759;52.544;13.418;2022-09-12T04:24:21;101081.69;;;11.30;100.00
62694;BME280;48759;52.544;13.418;2022-09-12T04:26:48;101092.78;;;11.43;100.00
62694;BME280;48759;52.544;13.418;2022-09-12T04:29:14;101088.75;;;11.39;100.00
62694;BME280;48759;52.544;13.418;2022-09-12T04:31:41;101085.53;;;11.36;100.00
62694;BME280;48759;52.544;13.418;2022-09-12T04:34:08;101084.75;;;11.42;100.00
62694;BME280;48759;52.544;13.418;2022-09-12T04:36:35;101086.16;;;11.66;100.00
62694;BME280;48759;52.544;13.418;2022-09-12T04:39:02;101082.75;;;11.64;100.00
62694;BME280;48759;52.544;13.418;2022-09-12T04:41:33;101080.84;;;13.37;100.00
62694;BME280;48759;52.544;13.418;2022-09-12T04:44:02;101087.31;;;11.91;100.00
62694;BME280;48759;52.544;13.418;2022-09-12T04:46:31;101089.19;;;13.95;100.00
62694;BME280;48759;52.544;13.418;2022-09-12T04:48:58;101098.38;;;14.33;100.00
62694;BME280;48759;52.544;13.418;2022-09-12T04:51:27;101090.34;;;14.57;100.00
62694;BME280;48759;52.544;13.418;2022-09-12T04:53:55;101097.63;;;14.44;100.00
62694;BME280;48759;52.544;13.418;2022-09-12T04:56:23;101096.06;;;14.24;100.00
62694;BME280;48759;52.544;13.418;2022-09-12T04:58:50;101099.41;;;14.70;100.00
62694;BME280;48759;52.544;13.418;2022-09-12T05:01:18;101093.88;;;14.70;100.00
62694;BME280;48759;52.544;13.418;2022-09-12T05:03:46;101095.63;;;14.65;100.00
62694;BME280;48759;52.544;13.418;2022-09-12T05:06:15;101098.63;;;14.63;100.00
62694;BME280;48759;52.544;13.418;2022-09-12T05:08:42;101092.50;;;14.54;100.00
62694;BME280;48759;52.544;13.418;2022-09-12T05:11:10;101095.22;;;14.86;100.00
62694;BME280;48759;52.544;13.418;2022-09-12T05:13:37;101086.81;;;12.42;100.00
62694;BME280;48759;52.544;13.418;2022-09-12T05:16:07;101088.25;;;12.11;100.00
62694;BME280;48759;52.544;13.418;2022-09-12T05:18:35;101089.31;;;11.63;100.00
62694;BME280;48759;52.544;13.418;2022-09-12T05:21:03;101088.91;;;11.66;100.00
62694;BME280;48759;52.544;13.418;2022-09-12T05:23:31;101100.19;;;11.71;100.00
62694;BME280;48759;52.544;13.418;2022-09-12T05:25:58;101098.38;;;11.57;100.00
62694;BME280;48759;52.544;13.418;2022-09-12T05:28:29;101096.78;;;11.75;100.00
62694;BME280;48759;52.544;13.418;2022-09-12T05:30:59;101105.34;;;11.87;100.00
62694;BME280;48759;52.544;13.418;2022-09-12T05:33:27;101100.69;;;11.94;100.00
62694;BME280;48759;52.544;13.418;2022-09-12T05:35:54;101106.63;;;11.91;100.00
62694;BME280;48759;52.544;13.418;2022-09-12T05:38:20;101101.09;;;11.91;100.00
62694;BME280;48759;52.544;13.418;2022-09-12T05:40:48;101112.22;;;12.04;100.00
62694;BME280;48759;52.544;13.418;2022-09-12T05:43:14;101108.03;;;12.28;100.00
62694;BME280;48759;52.544;13.418;2022-09-12T05:45:42;101110.06;;;12.06;100.00
62694;BME280;48759;52.544;13.418;2022-09-12T05:48:08;101112.72;;;12.41;100.00
62694;BME280;48759;52.544;13.418;2022-09-12T05:50:36;101119.50;;;12.38;100.00
62694;BME280;48759;52.544;13.418;2022-09-12T05:53:02;101114.63;;;12.47;100.00
62694;BME280;48759;52.544;13.418;2022-09-12T05:55:29;101119.19;;;12.68;100.00
62694;BME280;48759;52.544;13.418;2022-09-12T05:57:57;101122.16;;;12.79;100.00
62694;BME280;48759;52.544;13.418;2022-09-12T06:00:23;101127.25;;;12.82;100.00
62694;BME280;48759;52.544;13.418;2022-09-12T06:02:50;101121.28;;;12.72;100.00
62694;BME280;48759;52.544;13.418;2022-09-12T06:05:17;101129.81;;;12.90;100.00
62694;BME280;48759;52.544;13.418;2022-09-12T06:07:46;101129.16;;;13.08;100.00
62694;BME280;48759;52.544;13.418;2022-09-12T06:10:12;101140.19;;;13.28;100.00
62694;BME280;48759;52.544;13.418;2022-09-12T06:12:40;101125.53;;;13.21;100.00
62694;BME280;48759;52.544;13.418;2022-09-12T06:15:08;101128.97;;;12.96;100.00
62694;BME280;48759;52.544;13.418;2022-09-12T06:17:35;101133.63;;;13.02;100.00
62694;BME280;48759;52.544;13.418;2022-09-12T06:20:01;101130.63;;;13.37;100.00
62694;BME280;48759;52.544;13.418;2022-09-12T06:22:28;101133.44;;;14.01;100.00
62694;BME280;48759;52.544;13.418;2022-09-12T06:24:56;101145.50;;;14.65;100.00
62694;BME280;48759;52.544;13.418;2022-09-12T06:27:23;101151.47;;;14.62;100.00
62694;BME280;48759;52.544;13.418;2022-09-12T06:29:49;101151.81;;;13.83;100.00
62694;BME280;48759;52.544;13.418;2022-09-12T06:32:15;101144.19;;;13.71;100.00
62694;BME280;48759;52.544;13.418;2022-09-12T06:34:42;101146.34;;;13.50;100.00
62694;BME280;48759;52.544;13.418;2022-09-12T06:37:09;101145.91;;;13.39;100.00
62694;BME280;48759;52.544;13.418;2022-09-12T06:39:35;101152.53;;;13.32;100.00
62694;BME280;48759;52.544;13.418;2022-09-12T06:42:04;101149.56;;;13.27;100.00
62694;BME280;48759;52.544;13.418;2022-09-12T06:44:30;101148.50;;;13.28;100.00
62694;BME280;48759;52.544;13.418;2022-09-12T06:46:57;101150.63;;;13.39;100.00
62694;BME280;48759;52.544;13.418;2022-09-12T06:49:23;101155.00;;;13.79;100.00
62694;BME280;48759;52.544;13.418;2022-09-12T06:51:49;101158.59;;;13.87;100.00
62694;BME280;48759;52.544;13.418;2022-09-12T06:54:16;101155.47;;;13.76;100.00
62694;BME280;48759;52.544;13.418;2022-09-12T06:56:44;101157.28;;;13.96;100.00
62694;BME280;48759;52.544;13.418;2022-09-12T06:59:12;101157.31;;;13.89;100.00
62694;BME280;48759;52.544;13.418;2022-09-12T07:01:39;101151.97;;;14.01;100.00
62694;BME280;48759;52.544;13.418;2022-09-12T07:04:05;101152.22;;;13.93;100.00
62694;BME280;48759;52.544;13.418;2022-09-12T07:06:35;101148.16;;;13.89;100.00
62694;BME280;48759;52.544;13.418;2022-09-12T07:09:04;101151.28;;;14.12;100.00
62694;BME280;48759;52.544;13.418;2022-09-12T07:11:33;101149.66;;;13.91;100.00
62694;BME280;48759;52.544;13.418;2022-09-12T07:14:01;101143.53;;;14.27;100.00
62694;BME280;48759;52.544;13.418;2022-09-12T07:16:30;101150.72;;;14.41;100.00
62694;BME280;48759;52.544;13.418;2022-09-12T07:18:58;101143.84;;;14.57;100.00
62694;BME280;48759;52.544;13.418;2022-09-12T07:21:25;101141.56;;;14.79;100.00
62694;BME280;48759;52.544;13.418;2022-09-12T07:23:52;101145.56;;;15.08;100.00
62694;BME280;48759;52.544;13.418;2022-09-12T07:26:22;101149.19;;;14.83;100.00
62694;BME280;48759;52.544;13.418;2022-09-12T07:28:50;101148.91;;;14.60;100.00
62694;BME280;48759;52.544;13.418;2022-09-12T07:31:18;101143.78;;;14.64;100.00
62694;BME280;48759;52.544;13.418;2022-09-12T07:33:46;101148.00;;;14.73;100.00
62694;BME280;48759;52.544;13.418;2022-09-12T07:36:15;101152.38;;;14.56;100.00
62694;BME280;48759;52.544;13.418;2022-09-12T07:38:43;101145.91;;;14.93;100.00
62694;BME280;48759;52.544;13.418;2022-09-12T07:41:11;101149.91;;;14.97;100.00
62694;BME280;48759;52.544;13.418;2022-09-12T07:43:37;101149.34;;;15.13;100.00
62694;BME280;48759;52.544;13.418;2022-09-12T07:46:04;101148.69;;;14.93;100.00
62694;BME280;48759;52.544;13.418;2022-09-12T07:48:32;101142.97;;;14.88;100.00
62694;BME280;48759;52.544;13.418;2022-09-12T07:51:01;101151.63;;;14.98;100.00
62694;BME280;48759;52.544;13.418;2022-09-12T07:53:31;101147.66;;;15.12;100.00
62694;BME280;48759;52.544;13.418;2022-09-12T07:55:58;101153.25;;;15.30;100.00
62694;BME280;48759;52.544;13.418;2022-09-12T07:58:25;101151.84;;;15.21;100.00
62694;BME280;48759;52.544;13.418;2022-09-12T08:00:51;101155.16;;;15.37;100.00
62694;BME280;48759;52.544;13.418;2022-09-12T08:03:18;101151.19;;;15.51;100.00
62694;BME280;48759;52.544;13.418;2022-09-12T08:05:44;101149.38;;;15.81;100.00
62694;BME280;48759;52.544;13.418;2022-09-12T08:08:12;101152.13;;;15.81;100.00
62694;BME280;48759;52.544;13.418;2022-09-12T08:10:39;101158.47;;;15.88;100.00
62694;BME280;48759;52.544;13.418;2022-09-12T08:13:05;101155.19;;;16.10;100.00
62694;BME280;48759;52.544;13.418;2022-09-12T08:15:33;101154.00;;;16.05;100.00
62694;BME280;48759;52.544;13.418;2022-09-12T08:17:59;101159.22;;;16.32;100.00
62694;BME280;48759;52.544;13.418;2022-09-12T08:20:26;101156.88;;;16.47;100.00
62694;BME280;48759;52.544;13.418;2022-09-12T08:22:52;101162.78;;;16.80;100.00
62694;BME280;48759;52.544;13.418;2022-09-12T08:25:20;101162.78;;;17.22;100.00
62694;BME280;48759;52.544;13.418;2022-09-12T08:27:47;101157.09;;;17.17;100.00
62694;BME280;48759;52.544;13.418;2022-09-12T08:30:14;101155.88;;;17.13;100.00
62694;BME280;48759;52.544;13.418;2022-09-12T08:32:40;101157.91;;;16.64;100.00
62694;BME280;48759;52.544;13.418;2022-09-12T08:35:07;101154.16;;;16.59;100.00
62694;BME280;48759;52.544;13.418;2022-09-12T08:37:34;101163.53;;;16.88;100.00
62694;BME280;48759;52.544;13.418;2022-09-12T08:40:01;101161.34;;;17.19;100.00
62694;BME280;48759;52.544;13.418;2022-09-12T08:42:40;101161.34;;;17.43;100.00
62694;BME280;48759;52.544;13.418;2022-09-12T08:45:16;101157.84;;;17.71;100.00
62694;BME280;48759;52.544;13.418;2022-09-12T08:47:45;101153.94;;;17.72;100.00
62694;BME280;48759;52.544;13.418;2022-09-12T08:50:15;101162.91;;;17.50;100.00
62694;BME280;48759;52.544;13.418;2022-09-12T08:52:50;101155.19;;;17.29;100.00
62694;BME280;48759;52.544;13.418;2022-09-12T08:55:28;101157.22;;;17.57;100.00
62694;BME280;48759;52.544;13.418;2022-09-12T08:57:58;101160.41;;;16.96;100.00
62694;BME280;48759;52.544;13.418;2022-09-12T09:00:33;101145.88;;;16.94;100.00
62694;BME280;48759;52.544;13.418;2022-09-12T09:03:25;101154.00;;;16.95;100.00
62694;BME280;48759;52.544;13.418;2022-09-12T09:06:00;101151.28;;;17.07;100.00
62694;BME280;48759;52.544;13.418;2022-09-12T09:08:40;101160.88;;;17.23;100.00
62694;BME280;48759;52.544;13.418;2022-09-12T09:11:20;101155.31;;;17.81;100.00
62694;BME280;48759;52.544;13.418;2022-09-12T09:14:02;101150.44;;;18.00;100.00
62694;BME280;48759;52.544;13.418;2022-09-12T09:16:50;101149.44;;;18.74;100.00
62694;BME280;48759;52.544;13.418;2022-09-12T09:19:20;101159.88;;;18.39;100.00
62694;BME280;48759;52.544;13.418;2022-09-12T09:21:51;101152.22;;;18.74;100.00
62694;BME280;48759;52.544;13.418;2022-09-12T09:24:25;101155.94;;;18.63;100.00
62694;BME280;48759;52.544;13.418;2022-09-12T09:26:56;101140.25;;;18.90;100.00
62694;BME280;48759;52.544;13.418;2022-09-12T09:29:27;101152.84;;;18.76;100.00
62694;BME280;48759;52.544;13.418;2022-09-12T09:31:59;101145.28;;;18.60;100.00
62694;BME280;48759;52.544;13.418;2022-09-12T09:34:29;101148.72;;;18.95;100.00
62694;BME280;48759;52.544;13.418;2022-09-12T09:37:01;101144.47;;;18.76;100.00
62694;BME280;48759;52.544;13.418;2022-09-12T09:39:44;101145.25;;;17.80;100.00
62694;BME280;48759;52.544;13.418;2022-09-12T09:42:25;101141.22;;;17.99;99.15
62694;BME280;48759;52.544;13.418;2022-09-12T09:44:57;101137.13;;;17.67;94.50
62694;BME280;48759;52.544;13.418;2022-09-12T09:47:25;101145.47;;;18.02;95.51
62694;BME280;48759;52.544;13.418;2022-09-12T09:49:51;101145.44;;;18.13;96.87
62694;BME280;48759;52.544;13.418;2022-09-12T09:52:23;101141.59;;;18.71;88.23
62694;BME280;48759;52.544;13.418;2022-09-12T09:54:54;101136.91;;;18.60;89.80
62694;BME280;48759;52.544;13.418;2022-09-12T09:57:46;101133.63;;;18.34;93.44
62694;BME280;48759;52.544;13.418;2022-09-12T10:00:25;101134.72;;;18.33;93.92
62694;BME280;48759;52.544;13.418;2022-09-12T10:03:02;101140.28;;;18.33;86.73
62694;BME280;48759;52.544;13.418;2022-09-12T10:05:32;101136.41;;;18.34;84.61
62694;BME280;48759;52.544;13.418;2022-09-12T10:07:59;101133.16;;;18.99;82.03
62694;BME280;48759;52.544;13.418;2022-09-12T10:10:26;101123.94;;;19.88;73.97
62694;BME280;48759;52.544;13.418;2022-09-12T10:13:06;101126.31;;;19.96;72.37
62694;BME280;48759;52.544;13.418;2022-09-12T10:15:34;101122.13;;;20.15;70.01
62694;BME280;48759;52.544;13.418;2022-09-12T10:18:02;101120.16;;;19.94;70.45
62694;BME280;48759;52.544;13.418;2022-09-12T10:20:31;101108.50;;;20.02;69.49
62694;BME280;48759;52.544;13.418;2022-09-12T10:22:59;101124.78;;;20.05;68.97
62694;BME280;48759;52.544;13.418;2022-09-12T10:25:27;101119.25;;;19.71;70.82
62694;BME280;48759;52.544;13.418;2022-09-12T10:27:55;101127.25;;;19.46;72.11
62694;BME280;48759;52.544;13.418;2022-09-12T10:30:23;101112.19;;;19.85;67.99
62694;BME280;48759;52.544;13.418;2022-09-12T10:32:57;101116.91;;;19.63;66.75
62694;BME280;48759;52.544;13.418;2022-09-12T10:35:41;101120.22;;;19.60;68.33
62694;BME280;48759;52.544;13.418;2022-09-12T10:38:16;101114.31;;;18.73;73.68
62694;BME280;48759;52.544;13.418;2022-09-12T10:40:43;101108.44;;;19.75;66.71
62694;BME280;48759;52.544;13.418;2022-09-12T10:43:15;101116.56;;;21.27;59.50
62694;BME280;48759;52.544;13.418;2022-09-12T10:45:42;101118.53;;;19.98;63.03
62694;BME280;48759;52.544;13.418;2022-09-12T10:48:26;101105.72;;;19.63;65.60
62694;BME280;48759;52.544;13.418;2022-09-12T10:50:53;101105.59;;;19.53;66.45
62694;BME280;48759;52.544;13.418;2022-09-12T10:53:21;101104.69;;;19.31;68.48
62694;BME280;48759;52.544;13.418;2022-09-12T10:56:06;101102.09;;;20.50;67.77
62694;BME280;48759;52.544;13.418;2022-09-12T10:58:53;101106.44;;;22.16;57.10
62694;BME280;48759;52.544;13.418;2022-09-12T11:01:34;101104.38;;;22.88;53.82
62694;BME280;48759;52.544;13.418;2022-09-12T11:04:19;101105.41;;;21.01;58.64
62694;BME280;48759;52.544;13.418;2022-09-12T11:06:56;101107.72;;;21.41;57.45
62694;BME280;48759;52.544;13.418;2022-09-12T11:09:27;101101.09;;;21.57;56.65
62694;BME280;48759;52.544;13.418;2022-09-12T11:12:04;101101.63;;;21.17;57.45
62694;BME280;48759;52.544;13.418;2022-09-12T11:14:41;101100.03;;;21.73;54.69
62694;BME280;48759;52.544;13.418;2022-09-12T11:17:22;101106.16;;;22.17;53.53
62694;BME280;48759;52.544;13.418;2022-09-12T11:20:30;101104.63;;;22.77;51.39
62694;BME280;48759;52.544;13.418;2022-09-12T11:26:07;101106.47;;;22.26;53.42
62694;BME280;48759;52.544;13.418;2022-09-12T11:28:43;101103.06;;;22.13;55.04
62694;BME280;48759;52.544;13.418;2022-09-12T11:31:23;101098.34;;;20.93;56.01
62694;BME280;48759;52.544;13.418;2022-09-12T11:33:57;101092.53;;;20.99;57.23
62694;BME280;48759;52.544;13.418;2022-09-12T11:36:32;101097.88;;;21.06;57.42
62694;BME280;48759;52.544;13.418;2022-09-12T11:39:10;101100.94;;;20.73;57.64
62694;BME280;48759;52.544;13.418;2022-09-12T11:41:40;101092.91;;;20.81;57.31
62694;BME280;48759;52.544;13.418;2022-09-12T11:44:13;101093.63;;;21.30;56.36
62694;BME280;48759;52.544;13.418;2022-09-12T11:46:42;101095.19;;;21.58;54.84
62694;BME280;48759;52.544;13.418;2022-09-12T11:49:16;101089.22;;;21.45;54.41
62694;BME280;48759;52.544;13.418;2022-09-12T11:51:51;101079.66;;;20.72;56.83
62694;BME280;48759;52.544;13.418;2022-09-12T11:54:23;101078.38;;;21.16;55.24
62694;BME280;48759;52.544;13.418;2022-09-12T11:56:56;101071.34;;;21.51;54.01
62694;BME280;48759;52.544;13.418;2022-09-12T11:59:33;101076.75;;;20.88;55.59
62694;BME280;48759;52.544;13.418;2022-09-12T12:02:10;101069.41;;;20.55;55.28
62694;BME280;48759;52.544;13.418;2022-09-12T12:04:50;101077.19;;;20.75;54.39
62694;BME280;48759;52.544;13.418;2022-09-12T12:07:22;101072.66;;;21.01;52.15
62694;BME280;48759;52.544;13.418;2022-09-12T12:09:50;101065.91;;;20.97;52.41
62694;BME280;48759;52.544;13.418;2022-09-12T12:12:20;101063.09;;;20.97;51.62
62694;BME280;48759;52.544;13.418;2022-09-12T12:14:49;101062.63;;;21.10;52.31
62694;BME280;48759;52.544;13.418;2022-09-12T12:17:18;101049.13;;;20.97;51.70
62694;BME280;48759;52.544;13.418;2022-09-12T12:19:47;101049.78;;;21.09;51.66
62694;BME280;48759;52.544;13.418;2022-09-12T12:22:23;101052.00;;;22.06;50.16
62694;BME280;48759;52.544;13.418;2022-09-12T12:27:55;101051.44;;;21.99;50.86
62694;BME280;48759;52.544;13.418;2022-09-12T12:34:00;101045.88;;;22.15;49.92
62694;BME280;48759;52.544;13.418;2022-09-12T12:36:44;101045.34;;;22.33;48.65
62694;BME280;48759;52.544;13.418;2022-09-12T12:43:00;101047.88;;;22.34;48.04
62694;BME280;48759;52.544;13.418;2022-09-12T12:48:35;101047.41;;;22.88;46.11
62694;BME280;48759;52.544;13.418;2022-09-12T12:51:28;101054.97;;;22.77;46.88
62694;BME280;48759;52.544;13.418;2022-09-12T12:53:56;101057.22;;;22.85;46.09
62694;BME280;48759;52.544;13.418;2022-09-12T12:56:32;101051.00;;;22.48;47.13
62694;BME280;48759;52.544;13.418;2022-09-12T12:59:02;101052.66;;;22.44;46.92
62694;BME280;48759;52.544;13.418;2022-09-12T13:01:31;101055.69;;;21.55;49.37
62694;BME280;48759;52.544;13.418;2022-09-12T13:04:11;101051.44;;;21.47;49.47
62694;BME280;48759;52.544;13.418;2022-09-12T13:06:41;101040.59;;;21.19;49.83
62694;BME280;48759;52.544;13.418;2022-09-12T13:09:18;101045.09;;;21.62;49.34